createdAt,value
2018-05-04T00:00:59.476Z,67.80
2018-05-04T00:03:26.986Z,67.70
2018-05-04T00:05:54.520Z,67.90
2018-05-04T00:08:22.017Z,67.90
2018-05-04T00:10:50.299Z,68.00
2018-05-04T00:13:18.552Z,68.10
2018-05-04T00:15:46.079Z,68.10
2018-05-04T00:18:13.581Z,68.20
2018-05-04T00:20:41.113Z,68.00
2018-05-04T00:23:08.605Z,68.20
2018-05-04T00:25:36.127Z,68.30
2018-05-04T00:28:03.614Z,68.60
2018-05-04T00:30:31.896Z,68.80
2018-05-04T00:33:00.148Z,68.80
2018-05-04T00:35:27.675Z,68.80
2018-05-04T00:37:55.169Z,68.80
2018-05-04T00:40:22.685Z,69.00
2018-05-04T00:42:50.178Z,69.00
2018-05-04T00:45:18.460Z,69.20
2018-05-04T00:47:46.720Z,69.30
2018-05-04T00:50:14.236Z,69.30
2018-05-04T00:52:42.495Z,69.60
2018-05-04T00:55:10.045Z,69.60
2018-05-04T00:57:37.539Z,69.50
2018-05-04T01:00:05.054Z,69.40
2018-05-04T01:02:32.547Z,69.60
2018-05-04T01:05:00.074Z,69.50
2018-05-04T01:07:28.329Z,69.50
2018-05-04T01:09:55.843Z,69.50
2018-05-04T01:12:23.339Z,69.50
2018-05-04T01:14:50.890Z,69.40
2018-05-04T01:17:18.379Z,69.40
2018-05-04T01:19:45.878Z,69.40
2018-05-04T01:22:13.396Z,69.50
2018-05-04T01:24:40.908Z,69.50
2018-05-04T01:27:08.443Z,69.40
2018-05-04T01:29:35.927Z,69.50
2018-05-04T01:32:03.479Z,69.50
2018-05-04T01:34:31.742Z,69.30
2018-05-04T01:36:59.275Z,69.40
2018-05-04T01:39:26.769Z,69.60
2018-05-04T01:41:54.290Z,69.50
2018-05-04T01:44:21.789Z,69.60
2018-05-04T01:46:49.304Z,69.70
2018-05-04T01:49:17.565Z,70.60
2018-05-04T01:51:45.183Z,70.50
2018-05-04T01:54:13.457Z,70.60
2018-05-04T01:56:40.969Z,70.60
2018-05-04T01:59:08.455Z,70.80
2018-05-04T02:01:35.976Z,71.10
2018-05-04T02:04:04.231Z,71.50
2018-05-04T02:06:31.755Z,71.50
2018-05-04T02:08:59.254Z,71.60
2018-05-04T02:11:26.797Z,71.70
2018-05-04T02:13:54.292Z,71.90
2018-05-04T02:16:21.819Z,71.90
2018-05-04T02:18:50.075Z,71.80
2018-05-04T02:21:17.579Z,71.70
2018-05-04T02:23:45.851Z,71.70
2018-05-04T02:26:14.128Z,71.80
2018-05-04T02:28:41.635Z,71.70
2018-05-04T02:31:09.904Z,71.70
2018-05-04T02:33:38.204Z,72.10
2018-05-04T02:36:06.472Z,72.20
2018-05-04T02:38:34.777Z,72.40
2018-05-04T02:41:02.264Z,72.40
2018-05-04T02:43:30.552Z,73.50
2018-05-04T02:45:58.832Z,73.10
2018-05-04T02:48:27.132Z,73.40
2018-05-04T02:50:55.413Z,73.60
2018-05-04T02:53:23.714Z,73.70
2018-05-04T02:55:51.228Z,73.70
2018-05-04T02:58:18.754Z,73.70
2018-05-04T03:00:47.011Z,74.00
2018-05-04T03:03:15.308Z,74.10
2018-05-04T03:05:42.801Z,74.10
2018-05-04T03:08:11.103Z,74.30
2018-05-04T03:10:38.609Z,74.30
2018-05-04T03:13:06.153Z,74.70
2018-05-04T03:15:33.654Z,75.00
2018-05-04T03:18:01.177Z,75.40
2018-05-04T03:20:29.469Z,75.90
2018-05-04T03:22:57.755Z,76.20
2018-05-04T03:25:25.279Z,76.10
2018-05-04T03:27:52.804Z,76.10
2018-05-04T03:30:21.060Z,76.00
2018-05-04T03:32:48.584Z,76.00
2018-05-04T03:35:16.109Z,76.00
2018-05-04T03:37:43.596Z,75.90
2018-05-04T03:40:11.884Z,76.40
2018-05-04T03:42:40.151Z,76.60
2018-05-04T03:45:07.664Z,76.60
2018-05-04T03:47:35.604Z,76.70
2018-05-04T03:50:03.122Z,77.00
2018-05-04T03:52:30.626Z,77.10
2018-05-04T03:54:58.140Z,77.30
2018-05-04T03:57:38.270Z,77.60
2018-05-04T04:00:17.550Z,77.60
2018-05-04T04:02:57.782Z,78.00
2018-05-04T04:05:25.313Z,78.00
2018-05-04T04:07:52.808Z,77.90
2018-05-04T04:10:20.337Z,78.10
2018-05-04T04:12:48.600Z,78.30
2018-05-04T04:15:16.111Z,78.30
2018-05-04T04:17:43.615Z,78.50
2018-05-04T04:20:11.159Z,78.90
2018-05-04T04:22:38.671Z,78.90
2018-05-04T04:25:06.195Z,78.90
2018-05-04T04:27:34.551Z,78.80
2018-05-04T04:30:02.079Z,79.10
2018-05-04T04:32:29.596Z,79.10
2018-05-04T04:34:57.124Z,79.30
2018-05-04T04:37:24.655Z,79.00
2018-05-04T04:39:52.199Z,78.90
2018-05-04T04:42:19.687Z,78.70
2018-05-04T04:44:47.964Z,78.20
2018-05-04T04:47:15.458Z,78.30
2018-05-04T04:49:43.735Z,77.80
2018-05-04T04:52:11.753Z,77.70
2018-05-04T04:54:39.271Z,77.60
2018-05-04T04:57:06.780Z,77.50
2018-05-04T04:59:35.034Z,77.20
2018-05-04T05:02:02.569Z,77.20
2018-05-04T05:04:30.059Z,76.80
2018-05-04T05:06:57.599Z,76.50
2018-05-04T05:09:25.093Z,76.50
2018-05-04T05:11:52.624Z,76.70
2018-05-04T05:14:20.901Z,76.60
2018-05-04T05:16:48.413Z,76.60
2018-05-04T05:19:15.911Z,76.30
2018-05-04T05:21:43.501Z,75.90
2018-05-04T05:24:10.992Z,75.80
2018-05-04T05:26:38.511Z,75.80
2018-05-04T05:29:06.027Z,75.80
2018-05-04T05:31:33.535Z,75.80
2018-05-04T05:34:01.031Z,75.80
2018-05-04T05:36:28.575Z,75.50
2018-05-04T05:38:56.075Z,75.80
2018-05-04T05:41:23.629Z,75.50
2018-05-04T05:43:51.131Z,75.00
2018-05-04T05:46:18.682Z,74.50
2018-05-04T05:48:46.175Z,74.60
2018-05-04T05:51:13.687Z,74.10
2018-05-04T05:53:41.950Z,72.60
2018-05-04T05:56:09.471Z,72.40
2018-05-04T05:58:36.967Z,71.40
2018-05-04T06:01:04.490Z,71.40
2018-05-04T06:03:32.751Z,69.70
2018-05-04T06:06:00.249Z,69.50
2018-05-04T06:08:28.635Z,70.40
2018-05-04T06:10:56.895Z,69.30
2018-05-04T06:13:24.419Z,69.20
2018-05-04T06:15:51.920Z,67.70
2018-05-04T06:18:19.431Z,66.50
2018-05-04T06:20:47.707Z,66.50
2018-05-04T06:23:15.227Z,66.40
2018-05-04T06:25:42.715Z,66.30
2018-05-04T06:28:10.233Z,65.30
2018-05-04T06:30:38.533Z,65.90
2018-05-04T06:33:06.826Z,66.70
2018-05-04T06:35:35.092Z,66.30
2018-05-04T06:38:03.399Z,66.20
2018-05-04T06:40:31.679Z,65.90
2018-05-04T06:42:59.971Z,66.70
2018-05-04T06:45:28.232Z,66.50
2018-05-04T06:47:55.778Z,66.40
2018-05-04T06:50:23.284Z,65.90
2018-05-04T06:52:50.803Z,66.20
2018-05-04T06:55:18.301Z,65.30
2018-05-04T06:57:45.826Z,65.50
2018-05-04T07:00:13.372Z,65.10
2018-05-04T07:02:40.890Z,64.40
2018-05-04T07:05:08.395Z,64.80
2018-05-04T07:07:35.911Z,64.70
2018-05-04T07:10:04.196Z,63.80
2018-05-04T07:12:32.485Z,63.30
2018-05-04T07:15:00.827Z,63.00
2018-05-04T07:17:28.314Z,63.00
2018-05-04T07:19:55.827Z,62.90
2018-05-04T07:22:23.385Z,62.80
2018-05-04T07:24:51.678Z,62.50
2018-05-04T07:27:19.935Z,61.60
2018-05-04T07:29:47.467Z,62.30
2018-05-04T07:32:14.967Z,61.20
2018-05-04T07:34:42.480Z,60.60
2018-05-04T07:37:10.739Z,62.00
2018-05-04T07:39:38.260Z,62.00
2018-05-04T07:42:05.751Z,61.00
2018-05-04T07:44:33.270Z,60.90
2018-05-04T07:47:00.875Z,60.80
2018-05-04T07:49:28.411Z,60.70
2018-05-04T07:51:55.920Z,60.10
2018-05-04T07:54:23.450Z,60.50
2018-05-04T07:56:50.946Z,61.00
2018-05-04T07:59:19.223Z,60.40
2018-05-04T08:01:47.483Z,60.80
2018-05-04T08:04:15.068Z,60.80
2018-05-04T08:06:42.575Z,60.90
2018-05-04T08:09:10.112Z,61.20
2018-05-04T08:11:37.599Z,61.10
2018-05-04T08:14:05.880Z,61.00
2018-05-04T08:16:33.413Z,61.00
2018-05-04T08:19:00.911Z,60.90
2018-05-04T08:21:28.411Z,60.00
2018-05-04T08:23:55.942Z,60.30
2018-05-04T08:26:23.466Z,61.30
2018-05-04T08:28:50.965Z,60.30
2018-05-04T08:31:18.483Z,60.30
2018-05-04T08:33:46.755Z,60.60
2018-05-04T08:36:14.272Z,60.60
2018-05-04T08:38:41.783Z,60.30
2018-05-04T08:41:09.300Z,60.20
2018-05-04T08:43:37.556Z,61.30
2018-05-04T08:46:05.073Z,61.20
2018-05-04T08:48:32.561Z,61.40
2018-05-04T08:51:00.156Z,61.00
2018-05-04T08:53:27.620Z,61.70
2018-05-04T08:55:55.126Z,61.70
2018-05-04T08:58:23.428Z,62.30
2018-05-04T09:00:51.704Z,61.40
2018-05-04T09:03:19.191Z,61.40
2018-05-04T09:05:47.472Z,61.20
2018-05-04T09:08:15.748Z,60.30
2018-05-04T09:10:43.266Z,60.30
2018-05-04T09:13:10.767Z,60.60
2018-05-04T09:15:38.284Z,60.90
2018-05-04T09:18:06.568Z,61.00
2018-05-04T09:20:34.861Z,59.40
2018-05-04T09:23:03.128Z,59.50
2018-05-04T09:25:30.660Z,59.50
2018-05-04T09:27:58.155Z,59.40
2018-05-04T09:30:25.755Z,59.30
2018-05-04T09:32:54.064Z,59.20
2018-05-04T09:35:21.641Z,59.20
2018-05-04T09:37:49.154Z,58.80
2018-05-04T09:40:16.660Z,59.10
2018-05-04T09:42:44.952Z,59.10
2018-05-04T09:45:13.210Z,58.90
2018-05-04T09:47:40.764Z,58.90
2018-05-04T09:50:08.263Z,59.40
2018-05-04T09:52:35.791Z,59.20
2018-05-04T09:55:03.304Z,58.30
2018-05-04T09:57:30.845Z,58.10
2018-05-04T09:59:58.336Z,58.10
2018-05-04T10:02:26.685Z,58.50
2018-05-04T10:04:54.184Z,58.50
2018-05-04T10:07:21.731Z,58.70
2018-05-04T10:09:49.230Z,59.30
2018-05-04T10:12:16.783Z,59.40
2018-05-04T10:14:44.275Z,59.10
2018-05-04T10:17:11.790Z,58.90
2018-05-04T10:19:40.054Z,59.00
2018-05-04T10:22:07.602Z,59.00
2018-05-04T10:24:35.100Z,59.30
2018-05-04T10:27:02.637Z,59.20
2018-05-04T10:29:30.131Z,59.20
2018-05-04T10:31:57.705Z,58.70
2018-05-04T10:34:25.228Z,58.60
2018-05-04T10:36:52.791Z,58.60
2018-05-04T10:39:20.287Z,58.50
2018-05-04T10:41:47.807Z,58.70
2018-05-04T10:44:15.323Z,58.30
2018-05-04T10:46:42.837Z,58.20
2018-05-04T10:49:10.365Z,58.20
2018-05-04T10:51:37.924Z,58.20
2018-05-04T10:54:05.439Z,58.30
2018-05-04T10:56:32.933Z,58.30
2018-05-04T10:59:00.480Z,58.30
2018-05-04T11:01:27.972Z,58.30
2018-05-04T11:03:55.503Z,58.50
2018-05-04T11:06:23.055Z,58.60
2018-05-04T11:08:50.635Z,58.70
2018-05-04T11:11:18.123Z,58.60
2018-05-04T11:13:45.694Z,57.90
2018-05-04T11:16:13.191Z,58.10
2018-05-04T11:18:40.723Z,58.90
2018-05-04T11:21:08.228Z,58.60
2018-05-04T11:23:35.739Z,58.70
2018-05-04T11:26:04.020Z,58.00
2018-05-04T11:28:32.304Z,58.70
2018-05-04T11:31:00.571Z,59.10
2018-05-04T11:33:28.096Z,58.60
2018-05-04T11:35:55.696Z,58.60
2018-05-04T11:38:23.207Z,57.90
2018-05-04T11:40:51.498Z,58.90
2018-05-04T11:43:19.815Z,58.90
2018-05-04T11:45:47.327Z,58.80
2018-05-04T11:48:14.850Z,58.50
2018-05-04T11:50:43.107Z,58.00
2018-05-04T11:53:10.722Z,58.10
2018-05-04T11:55:38.221Z,58.20
2018-05-04T11:58:05.779Z,57.70
2018-05-04T12:00:33.284Z,56.40
2018-05-04T12:03:00.804Z,56.30
2018-05-04T12:05:28.324Z,56.60
2018-05-04T12:07:55.819Z,57.40
2018-05-04T12:10:24.208Z,57.00
2018-05-04T12:12:51.700Z,56.90
2018-05-04T12:15:19.223Z,56.60
2018-05-04T12:17:46.723Z,57.50
2018-05-04T12:20:14.984Z,57.20
2018-05-04T12:22:42.572Z,57.00
2018-05-04T12:25:10.011Z,57.20
2018-05-04T12:27:37.548Z,57.70
2018-05-04T12:30:05.055Z,57.00
2018-05-04T12:32:32.570Z,57.10
2018-05-04T12:35:00.839Z,57.60
2018-05-04T12:37:28.359Z,57.60
2018-05-04T12:39:55.857Z,57.90
2018-05-04T12:42:23.521Z,57.80
2018-05-04T12:44:51.069Z,57.40
2018-05-04T12:47:18.585Z,57.30
2018-05-04T12:49:46.091Z,57.40
2018-05-04T12:52:14.409Z,56.30
2018-05-04T12:54:41.998Z,56.20
2018-05-04T12:57:09.511Z,57.00
2018-05-04T12:59:37.020Z,56.50
2018-05-04T13:02:04.540Z,56.20
2018-05-04T13:04:32.129Z,55.70
2018-05-04T13:06:59.587Z,56.10
2018-05-04T13:09:27.104Z,56.40
2018-05-04T13:11:55.184Z,56.00
2018-05-04T13:14:22.694Z,55.90
2018-05-04T13:16:50.267Z,55.90
2018-05-04T13:19:17.771Z,56.10
2018-05-04T13:21:45.295Z,56.50
2018-05-04T13:24:12.796Z,57.00
2018-05-04T13:26:41.105Z,55.80
2018-05-04T13:29:09.418Z,55.70
2018-05-04T13:31:36.964Z,56.20
2018-05-04T13:34:04.489Z,56.10
2018-05-04T13:36:31.997Z,56.90
2018-05-04T13:41:34.204Z,57.00
2018-05-04T13:44:01.737Z,56.90
2018-05-04T13:46:29.243Z,56.30
2018-05-04T13:48:56.837Z,56.70
2018-05-04T13:51:24.479Z,56.40
2018-05-04T13:53:52.729Z,56.90
2018-05-04T13:56:20.232Z,56.80
2018-05-04T13:58:47.759Z,56.80
2018-05-04T14:01:16.048Z,56.80
2018-05-04T14:03:44.363Z,56.50
2018-05-04T14:06:11.858Z,56.50
2018-05-04T14:08:39.386Z,57.00
2018-05-04T14:11:06.932Z,57.20
2018-05-04T14:13:34.476Z,57.30
2018-05-04T14:16:01.983Z,57.40
2018-05-04T14:18:30.309Z,58.00
2018-05-04T14:20:57.811Z,58.00
2018-05-04T14:23:25.331Z,58.00
2018-05-04T14:25:52.854Z,57.30
2018-05-04T14:28:20.396Z,58.00
2018-05-04T14:30:47.924Z,58.00
2018-05-04T14:33:16.192Z,57.40
2018-05-04T14:35:43.704Z,57.80
2018-05-04T14:38:11.984Z,57.30
2018-05-04T14:40:40.287Z,57.30
2018-05-04T14:43:07.871Z,57.40
2018-05-04T14:45:35.394Z,57.10
2018-05-04T14:48:02.922Z,57.10
2018-05-04T14:50:30.469Z,56.80
2018-05-04T14:52:58.740Z,56.30
2018-05-04T14:55:27.055Z,55.70
2018-05-04T14:57:54.647Z,55.60
2018-05-04T15:00:22.167Z,55.80
2018-05-04T15:02:49.667Z,55.80
2018-05-04T15:05:17.212Z,55.60
2018-05-04T15:07:44.711Z,55.60
2018-05-04T15:10:12.264Z,55.60
2018-05-04T15:12:40.537Z,55.30
2018-05-04T15:15:08.057Z,55.30
2018-05-04T15:17:36.691Z,55.10
2018-05-04T15:20:05.250Z,55.20
2018-05-04T15:22:32.986Z,55.00
2018-05-04T15:25:00.559Z,54.50
2018-05-04T15:27:28.064Z,54.80
2018-05-04T15:29:55.638Z,55.00
2018-05-04T15:32:23.140Z,55.00
2018-05-04T15:34:50.905Z,55.10
2018-05-04T15:37:18.404Z,54.70
2018-05-04T15:39:45.954Z,54.70
2018-05-04T15:42:13.491Z,54.60
2018-05-04T15:44:41.022Z,53.90
2018-05-04T15:47:08.637Z,53.80
2018-05-04T15:49:36.083Z,53.90
2018-05-04T15:52:06.452Z,53.60
2018-05-04T15:54:34.030Z,53.70
2018-05-04T15:57:01.496Z,53.80
2018-05-04T15:59:29.007Z,54.20
2018-05-04T16:01:56.531Z,54.00
2018-05-04T16:04:24.044Z,54.00
2018-05-04T16:06:52.335Z,54.40
2018-05-04T16:09:20.599Z,53.80
2018-05-04T16:11:48.127Z,53.80
2018-05-04T16:14:15.724Z,53.50
2018-05-04T16:16:43.332Z,52.50
2018-05-04T16:19:10.846Z,52.10
2018-05-04T16:21:39.172Z,51.60
2018-05-04T16:24:06.679Z,51.60
2018-05-04T16:26:34.215Z,51.30
2018-05-04T16:29:01.725Z,50.40
2018-05-04T16:31:29.525Z,49.90
2018-05-04T16:33:57.064Z,50.80
2018-05-04T16:36:24.811Z,50.80
2018-05-04T16:38:52.313Z,50.40
2018-05-04T16:41:19.814Z,50.40
2018-05-04T16:43:47.341Z,50.10
2018-05-04T16:46:20.475Z,50.30
2018-05-04T16:48:53.671Z,50.10
2018-05-04T16:51:21.177Z,50.40
2018-05-04T16:53:49.469Z,50.40
2018-05-04T16:56:17.725Z,50.10
2018-05-04T16:58:45.272Z,50.10
2018-05-04T17:01:12.772Z,50.20
2018-05-04T17:03:40.353Z,50.00
2018-05-04T17:06:07.844Z,50.30
2018-05-04T17:08:36.147Z,50.20
2018-05-04T17:11:03.652Z,50.10
2018-05-04T17:13:31.167Z,50.10
2018-05-04T17:15:58.748Z,49.90
2018-05-04T17:18:26.232Z,50.10
2018-05-04T17:20:54.513Z,50.40
2018-05-04T17:23:22.820Z,50.40
2018-05-04T17:25:50.319Z,50.40
2018-05-04T17:28:17.860Z,50.30
2018-05-04T17:30:45.360Z,50.40
2018-05-04T17:33:12.883Z,50.30
2018-05-04T17:35:41.179Z,50.30
2018-05-04T17:38:09.467Z,50.20
2018-05-04T17:40:37.740Z,50.20
2018-05-04T17:43:05.252Z,50.00
2018-05-04T17:45:32.844Z,50.30
2018-05-04T17:48:00.361Z,50.40
2018-05-04T17:50:28.645Z,50.50
2018-05-04T17:52:56.175Z,50.50
2018-05-04T17:55:23.687Z,50.10
2018-05-04T17:57:51.249Z,50.60
2018-05-04T18:00:18.839Z,50.70
2018-05-04T18:02:46.442Z,50.90
2018-05-04T18:05:13.973Z,50.90
2018-05-04T18:07:41.503Z,51.10
2018-05-04T18:10:09.054Z,51.40
2018-05-04T18:12:36.564Z,51.50
2018-05-04T18:15:04.991Z,51.60
2018-05-04T18:17:32.564Z,51.80
2018-05-04T18:20:00.887Z,51.80
2018-05-04T18:22:28.429Z,51.90
2018-05-04T18:24:56.712Z,52.60
2018-05-04T18:27:24.203Z,52.00
2018-05-04T18:29:52.527Z,52.10
2018-05-04T18:32:20.022Z,52.10
2018-05-04T18:34:47.548Z,52.30
2018-05-04T18:37:15.042Z,52.10
2018-05-04T18:39:42.571Z,53.00
2018-05-04T18:42:10.836Z,52.30
2018-05-04T18:44:38.352Z,52.30
2018-05-04T18:47:05.866Z,52.30
2018-05-04T18:49:33.419Z,52.30
2018-05-04T18:52:00.943Z,52.30
2018-05-04T18:54:28.510Z,52.10
2018-05-04T18:56:56.048Z,51.90
2018-05-04T18:59:23.595Z,51.90
2018-05-04T19:01:52.088Z,51.90
2018-05-04T19:04:19.606Z,51.90
2018-05-04T19:06:47.190Z,51.90
2018-05-04T19:09:14.700Z,51.80
2018-05-04T19:11:42.224Z,52.10
2018-05-04T19:14:09.735Z,51.90
2018-05-04T19:16:37.255Z,52.00
2018-05-04T19:19:04.768Z,52.30
2018-05-04T19:21:33.044Z,52.30
2018-05-04T19:24:01.350Z,52.90
2018-05-04T19:26:29.631Z,52.30
2018-05-04T19:28:57.940Z,52.40
2018-05-04T19:31:25.431Z,52.40
2018-05-04T19:33:52.953Z,52.60
2018-05-04T19:36:21.215Z,52.30
2018-05-04T19:38:48.741Z,52.30
2018-05-04T19:41:16.247Z,52.30
2018-05-04T19:43:43.743Z,52.40
2018-05-04T19:46:11.293Z,52.40
2018-05-04T19:48:38.788Z,52.60
2018-05-04T19:51:06.316Z,52.80
2018-05-04T19:53:33.830Z,52.70
2018-05-04T19:56:01.358Z,53.00
2018-05-04T19:58:28.919Z,53.00
2018-05-04T20:00:56.515Z,53.00
2018-05-04T20:03:24.014Z,53.20
2018-05-04T20:05:51.580Z,53.20
2018-05-04T20:08:19.102Z,53.10
2018-05-04T20:10:46.639Z,53.30
2018-05-04T20:13:14.159Z,53.20
2018-05-04T20:15:41.688Z,53.30
2018-05-04T20:18:09.218Z,53.40
2018-05-04T20:20:36.755Z,53.50
2018-05-04T20:23:05.143Z,53.60
2018-05-04T20:25:33.478Z,53.60
2018-05-04T20:28:00.987Z,53.60
2018-05-04T20:30:29.296Z,53.90
2018-05-04T20:32:57.576Z,53.90
2018-05-04T20:35:25.128Z,53.90
2018-05-04T20:37:52.645Z,54.20
2018-05-04T20:40:20.155Z,54.30
2018-05-04T20:42:47.675Z,54.50
2018-05-04T20:45:15.175Z,54.40
2018-05-04T20:47:42.737Z,54.60
2018-05-04T20:50:10.230Z,54.90
2018-05-04T20:52:38.082Z,55.10
2018-05-04T20:55:05.611Z,55.10
2018-05-04T20:57:33.143Z,55.00
2018-05-04T21:00:00.640Z,55.00
2018-05-04T21:02:28.156Z,55.00
2018-05-04T21:04:55.690Z,55.00
2018-05-04T21:07:23.208Z,55.00
2018-05-04T21:09:50.723Z,55.00
2018-05-04T21:12:18.236Z,55.10
2018-05-04T21:14:46.536Z,54.90
2018-05-04T21:17:14.047Z,55.00
2018-05-04T21:19:42.328Z,54.90
2018-05-04T21:22:09.905Z,54.90
2018-05-04T21:24:37.410Z,55.00
2018-05-04T21:27:05.736Z,55.20
2018-05-04T21:29:33.261Z,54.90
2018-05-04T21:32:00.801Z,54.90
2018-05-04T21:34:28.309Z,55.00
2018-05-04T21:36:55.875Z,55.00
2018-05-04T21:39:23.365Z,55.00
2018-05-04T21:41:51.643Z,54.90
2018-05-04T21:44:19.132Z,54.90
2018-05-04T21:46:46.679Z,55.10
2018-05-04T21:49:14.167Z,54.90
2018-05-04T21:51:41.699Z,55.50
2018-05-04T21:54:09.214Z,55.60
2018-05-04T21:56:37.515Z,55.80
2018-05-04T21:59:05.880Z,55.90
2018-05-04T22:01:33.319Z,55.90
2018-05-04T22:04:00.858Z,56.10
2018-05-04T22:06:28.377Z,56.20
2018-05-04T22:08:55.890Z,56.30
2018-05-04T22:11:23.395Z,56.40
2018-05-04T22:13:50.984Z,56.30
2018-05-04T22:16:18.481Z,56.40
2018-05-04T22:18:46.024Z,56.50
2018-05-04T22:21:13.527Z,56.40
2018-05-04T22:23:41.864Z,56.80
2018-05-04T22:26:09.367Z,56.80
2018-05-04T22:28:36.899Z,56.80
2018-05-04T22:31:04.394Z,57.00
2018-05-04T22:33:31.934Z,57.20
2018-05-04T22:35:59.432Z,57.40
2018-05-04T22:38:26.955Z,57.50
2018-05-04T22:40:55.222Z,58.10
2018-05-04T22:43:22.768Z,57.90
2018-05-04T22:45:50.271Z,58.00
2018-05-04T22:48:17.792Z,58.30
2018-05-04T22:50:45.301Z,58.30
2018-05-04T22:53:12.832Z,58.10
2018-05-04T22:55:40.344Z,58.40
2018-05-04T22:58:07.892Z,58.30
2018-05-04T23:00:35.422Z,58.30
2018-05-04T23:03:03.711Z,58.60
2018-05-04T23:05:32.040Z,58.70
2018-05-04T23:07:59.527Z,58.70
2018-05-04T23:10:27.129Z,59.00
2018-05-04T23:12:54.640Z,59.20
2018-05-04T23:15:22.162Z,59.30
2018-05-04T23:17:49.658Z,59.30
2018-05-04T23:20:17.179Z,59.50
2018-05-04T23:22:44.678Z,59.50
2018-05-04T23:25:12.200Z,59.60
2018-05-04T23:27:39.706Z,59.70
2018-05-04T23:30:07.229Z,59.70
2018-05-04T23:32:34.744Z,59.70
2018-05-04T23:35:02.358Z,60.00
2018-05-04T23:37:30.631Z,60.30
2018-05-04T23:39:58.162Z,60.30
2018-05-04T23:42:25.669Z,61.20
2018-05-04T23:44:53.181Z,61.00
2018-05-04T23:47:20.713Z,60.90
2018-05-04T23:49:48.234Z,61.10
2018-05-04T23:52:15.779Z,62.00
2018-05-04T23:54:43.333Z,61.30
2018-05-04T23:57:10.839Z,61.40
2018-05-04T23:59:38.370Z,61.40
